EMA weather

East Midlands Airport
Nottingham, England, United Kingdom

Public forecast

Using degrees Celsius for public forecast. Weather courtesy of forecast.io.

Current aviation weather report (METAR) for East Midlands Airport

Retrieved 2019/10/19 19:50 UTC (53 minutes ago):

EGNX 191950Z 25007KT 9999 SCT028 09/08 Q1002

Aviation forecast (TAF) for East Midlands Airport

Retrieved 2019/10/19 18:00 UTC (3 hours ago):

TAF EGNX 191706Z 1918/2018 25010KT 9999 FEW027 PROB30 TEMPO 1918/1919 6000 SHRA PROB30 TEMPO 1919/1923 BKN012 BECMG 1920/1923 VRB03KT PROB30 1923/2008 6000 BECMG 2006/2009 35010KT PROB30 TEMPO 2008/2011 BKN012 PROB30 TEMPO 2013/2017 7000 -SHRA